Time;durP1;ratioP1;P1;durP2;ratioP2;P2;SDS_P1;SDS_P2;PMS_P1;PMS_P2;Temp;Humidity;BMP_temperature;BMP_pressure;BME280_temperature;BME280_humidity;BME280_pressure;Samples;Min_cycle;Max_cycle;Signal;HPM_P1;HPM_P2
2023/07/29 00:00:14;;;;;;;99.03;5.60;;;;;;;25.18;55.12;98775.66;7307059;19;129526;-42
2023/07/29 00:02:39;;;;;;;33.03;1.73;;;;;;;25.25;55.12;98787.09;7309989;19;130547;-39
2023/07/29 00:05:05;;;;;;;27.13;1.47;;;;;;;25.29;54.85;98789.16;7310652;19;129844;-40
2023/07/29 00:07:30;;;;;;;46.83;2.60;;;;;;;25.32;55.01;98788.00;7308129;19;130554;-40
2023/07/29 00:09:55;;;;;;;22.90;1.30;;;;;;;24.90;51.25;98790.44;7309208;19;130294;-41
2023/07/29 00:12:21;;;;;;;57.80;3.33;;;;;;;24.76;50.99;98791.25;7308970;19;130313;-37
2023/07/29 00:14:46;;;;;;;28.17;1.57;;;;;;;24.69;51.34;98800.84;7307525;19;128915;-42
2023/07/29 00:17:11;;;;;;;59.27;3.37;;;;;;;24.76;53.65;98788.63;7308008;19;130643;-41
2023/07/29 00:19:37;;;;;;;70.23;3.87;;;;;;;24.99;54.23;98786.72;7307667;19;129036;-41
2023/07/29 00:22:04;;;;;;;34.33;1.80;;;;;;;25.12;54.84;98789.53;7309206;19;129401;-41
2023/07/29 00:24:29;;;;;;;53.10;2.95;;;;;;;25.15;54.56;98784.75;7306789;19;129676;-42
2023/07/29 00:26:55;;;;;;;33.40;1.87;;;;;;;25.18;54.73;98789.63;7309039;19;129320;-42
2023/07/29 00:29:20;;;;;;;83.57;4.87;;;;;;;25.21;55.10;98791.06;7306905;19;130199;-39
2023/07/29 00:31:45;;;;;;;62.37;3.70;;;;;;;25.25;54.66;98787.09;7308638;19;129517;-40
2023/07/29 00:34:11;;;;;;;27.03;1.47;;;;;;;25.27;54.55;98785.88;7310790;19;129078;-41
2023/07/29 00:36:36;;;;;;;47.50;2.83;;;;;;;25.30;55.31;98790.00;7315087;19;128945;-39
2023/07/29 00:39:01;;;;;;;23.97;1.43;;;;;;;25.31;55.30;98775.81;7315795;19;131247;-32
2023/07/29 00:41:27;;;;;;;26.50;1.43;;;;;;;25.33;54.68;98779.09;7314055;19;129251;-33
2023/07/29 00:43:52;;;;;;;45.23;2.63;;;;;;;25.26;55.07;98759.75;7314482;19;129791;-33
2023/07/29 00:46:19;;;;;;;27.17;1.53;;;;;;;25.32;55.28;98772.22;7315332;19;129155;-35
2023/07/29 00:48:44;;;;;;;68.05;3.80;;;;;;;25.32;55.01;98772.22;7313199;19;130183;-34
2023/07/29 00:51:10;;;;;;;21.00;1.13;;;;;;;24.88;51.36;98771.38;7316811;19;130649;-29
2023/07/29 00:53:35;;;;;;;14.07;0.90;;;;;;;24.78;51.25;98774.28;7315793;19;129549;-31
2023/07/29 00:56:01;;;;;;;65.63;3.57;;;;;;;24.72;51.23;98777.63;7314886;19;129223;-36
2023/07/29 00:58:26;;;;;;;48.80;2.60;;;;;;;24.82;53.91;98782.63;7315108;19;129108;-31
2023/07/29 01:00:52;;;;;;;56.90;3.20;;;;;;;25.03;54.50;98772.19;7312750;19;129684;-39
2023/07/29 01:03:17;;;;;;;23.33;1.30;;;;;;;25.12;54.42;98763.25;7313722;19;128935;-36
2023/07/29 01:05:54;;;;;;;39.90;2.13;;;;;;;25.18;55.19;98767.75;7315147;19;131097;-38
2023/07/29 01:08:23;;;;;;;;;;;;;;;25.29;55.51;98767.28;7315623;19;129314;-36
2023/07/29 01:11:38;;;;;;;25.38;1.42;;;;;;;25.25;55.65;98764.22;7317221;19;129827;-37
2023/07/29 01:14:25;;;;;;;77.35;4.32;;;;;;;25.26;55.53;98763.22;7310461;19;129351;-38
2023/07/29 01:16:58;;;;;;;46.28;2.40;;;;;;;25.26;55.36;98759.75;7314031;19;129502;-40
2023/07/29 01:19:45;;;;;;;49.08;2.60;;;;;;;25.31;55.48;98754.78;7314785;19;129531;-38
2023/07/29 01:22:12;;;;;;;66.82;3.83;;;;;;;25.32;54.64;98766.94;7314537;19;129656;-39
2023/07/29 01:24:37;;;;;;;;;;;;;;;25.42;54.97;98762.25;7314548;19;129406;-39
2023/07/29 01:27:04;;;;;;;62.90;3.88;;;;;;;25.33;54.54;98763.31;7313794;19;129664;-37
2023/07/29 01:29:30;;;;;;;39.15;2.08;;;;;;;25.31;55.38;98754.78;7313881;19;130296;-36
2023/07/29 01:32:00;;;;;;;44.10;2.43;;;;;;;24.84;51.78;98754.34;7313243;19;129763;-35
2023/07/29 01:34:48;;;;;;;5.20;0.38;;;;;;;24.73;51.68;98749.53;7312375;19;128900;-39
2023/07/29 01:37:20;;;;;;;81.85;4.97;;;;;;;24.70;50.65;98744.63;7312971;19;129105;-34
2023/07/29 01:39:49;;;;;;;31.08;1.65;;;;;;;24.90;54.94;98745.72;7314100;19;130157;-39
2023/07/29 01:42:15;;;;;;;53.47;3.28;;;;;;;25.04;54.69;98742.28;7313622;19;129286;-38
2023/07/29 01:44:42;;;;;;;42.90;2.27;;;;;;;25.15;54.65;98750.53;7310181;19;129194;-38
2023/07/29 01:47:08;;;;;;;57.28;3.53;;;;;;;25.17;54.74;98737.19;7312686;19;129095;-36
2023/07/29 01:49:33;;;;;;;30.47;1.67;;;;;;;25.21;54.94;98757.69;7312975;19;131000;-39
2023/07/29 01:51:58;;;;;;;26.50;1.43;;;;;;;25.24;54.90;98748.59;7313619;19;130248;-38
2023/07/29 01:54:24;;;;;;;78.30;4.47;;;;;;;25.25;54.90;98745.00;7311236;19;130432;-35
2023/07/29 01:56:51;;;;;;;45.80;2.40;;;;;;;25.29;55.16;98752.31;7314182;19;129098;-33
2023/07/29 01:59:16;;;;;;;;;;;;;;;25.41;55.16;98757.97;7313004;19;131134;-33
2023/07/29 02:01:42;;;;;;;31.77;1.70;;;;;;;25.24;55.37;98738.91;7310517;19;129415;-34
2023/07/29 02:04:08;;;;;;;31.35;1.65;;;;;;;25.23;54.71;98733.81;7311597;19;129056;-37
2023/07/29 02:06:33;;;;;;;40.43;2.43;;;;;;;25.32;55.17;98756.41;7312899;19;128913;-36
2023/07/29 02:08:59;;;;;;;27.83;1.47;;;;;;;25.32;55.55;98751.94;7312745;19;129355;-39
2023/07/29 02:11:27;;;;;;;48.03;2.87;;;;;;;24.92;52.08;98754.25;7312548;19;129636;-31
2023/07/29 02:13:53;;;;;;;28.98;1.73;;;;;;;24.74;51.27;98756.44;7312374;19;130542;-35
2023/07/29 02:16:19;;;;;;;25.73;1.38;;;;;;;24.67;51.68;98760.72;7312577;19;130720;-37
2023/07/29 02:18:44;;;;;;;19.17;0.97;;;;;;;24.80;54.06;98745.19;7310939;19;128953;-35
2023/07/29 02:21:09;;;;;;;37.07;2.03;;;;;;;25.01;54.37;98747.91;7310872;19;129272;-35
2023/07/29 02:23:35;;;;;;;81.27;4.60;;;;;;;25.13;54.74;98751.72;7311201;19;130792;-33
2023/07/29 02:26:00;;;;;;;24.50;1.30;;;;;;;25.16;54.94;98752.16;7312997;19;129180;-31
2023/07/29 02:28:25;;;;;;;23.30;1.37;;;;;;;25.09;55.11;98729.41;7311114;19;129141;-42
2023/07/29 02:31:14;;;;;;;56.80;3.00;;;;;;;25.26;55.25;98743.97;7311546;19;132437;-30
2023/07/29 02:33:40;;;;;;;47.88;2.70;;;;;;;25.15;55.29;98733.94;7310702;19;129905;-30
2023/07/29 02:36:05;;;;;;;37.60;2.10;;;;;;;25.28;55.04;98749.88;7313456;19;129380;-32
2023/07/29 02:38:30;;;;;;;24.43;1.33;;;;;;;25.29;54.95;98756.75;7311042;19;129503;-38
2023/07/29 02:40:56;;;;;;;27.40;1.53;;;;;;;25.31;55.26;98760.03;7309812;19;130578;-36
2023/07/29 02:43:21;;;;;;;47.13;2.47;;;;;;;25.32;55.11;98762.47;7310729;19;129727;-31
2023/07/29 02:45:46;;;;;;;54.87;3.27;;;;;;;25.31;55.50;98749.50;7312424;19;131230;-39
2023/07/29 02:48:12;;;;;;;33.80;1.93;;;;;;;25.33;55.07;98769.38;7311313;19;129198;-41
2023/07/29 02:50:37;;;;;;;39.97;2.17;;;;;;;25.31;54.13;98774.00;7310536;19;129120;-36
2023/07/29 02:53:03;;;;;;;45.33;2.40;;;;;;;24.81;51.54;98775.75;7311239;19;129472;-36
2023/07/29 02:55:28;;;;;;;30.67;1.67;;;;;;;24.74;51.65;98772.19;7311831;19;128799;-38
2023/07/29 02:57:53;;;;;;;55.10;3.20;;;;;;;24.60;51.92;98759.81;7309592;19;129790;-33
2023/07/29 03:00:19;;;;;;;27.17;1.50;;;;;;;24.86;54.40;98781.28;7310644;19;130026;-35
2023/07/29 03:02:44;;;;;;;36.70;2.00;;;;;;;25.08;54.33;98790.88;7310626;19;128897;-44
2023/07/29 03:05:09;;;;;;;10.70;0.63;;;;;;;25.15;55.00;98790.00;7312039;19;129007;-30
2023/07/29 03:07:35;;;;;;;48.50;2.53;;;;;;;25.20;54.87;98781.56;7309925;19;130445;-31
2023/07/29 03:10:00;;;;;;;71.30;4.13;;;;;;;25.22;54.93;98787.47;7311152;19;130323;-30
2023/07/29 03:12:26;;;;;;;46.27;2.37;;;;;;;25.23;55.45;98789.91;7312318;19;129005;-32
2023/07/29 03:14:51;;;;;;;58.43;3.23;;;;;;;25.28;55.44;98781.44;7307941;19;129663;-42
2023/07/29 03:17:17;;;;;;;28.87;1.60;;;;;;;25.30;55.22;98779.47;7311298;19;130187;-34
2023/07/29 03:19:42;;;;;;;36.30;1.93;;;;;;;25.30;54.94;98784.72;7309878;19;129216;-34
2023/07/29 03:22:07;;;;;;;42.63;2.37;;;;;;;25.30;55.01;98784.72;7311305;19;129147;-34
2023/07/29 03:24:33;;;;;;;32.27;1.80;;;;;;;25.31;54.97;98783.72;7309634;19;130454;-38
2023/07/29 03:26:58;;;;;;;63.27;3.70;;;;;;;25.33;55.07;98794.88;7310744;19;130062;-38
2023/07/29 03:29:23;;;;;;;43.20;2.23;;;;;;;25.34;55.55;98786.78;7311027;19;129202;-39
2023/07/29 03:31:49;;;;;;;32.10;1.80;;;;;;;25.02;51.56;98786.38;7312914;19;129485;-35
2023/07/29 03:34:14;;;;;;;24.07;1.43;;;;;;;24.81;51.06;98783.63;7308468;19;129391;-37
2023/07/29 03:36:40;;;;;;;25.30;1.33;;;;;;;24.84;50.54;98773.56;7311111;19;130104;-37
2023/07/29 03:39:05;;;;;;;90.50;5.05;;;;;;;24.83;51.88;98776.38;7309487;19;130399;-34
2023/07/29 03:41:31;;;;;;;27.63;1.50;;;;;;;25.03;54.16;98777.47;7310701;19;129656;-38
2023/07/29 03:43:56;;;;;;;32.67;1.93;;;;;;;25.14;54.59;98774.41;7308971;19;129261;-32
2023/07/29 03:46:22;;;;;;;31.50;1.63;;;;;;;25.19;55.13;98772.00;7311423;19;130341;-38
2023/07/29 03:48:47;;;;;;;30.60;1.67;;;;;;;25.21;54.56;98762.94;7310759;19;130096;-37
2023/07/29 03:51:13;;;;;;;61.03;3.57;;;;;;;25.24;54.96;98764.38;7310179;19;130645;-33
2023/07/29 03:53:38;;;;;;;29.50;1.70;;;;;;;25.27;54.66;98764.03;7309346;19;129851;-35
2023/07/29 03:56:04;;;;;;;41.70;2.23;;;;;;;25.29;55.07;98756.75;7310359;19;130319;-42
2023/07/29 03:58:29;;;;;;;39.00;2.03;;;;;;;25.30;55.01;98763.66;7309685;19;129950;-38
2023/07/29 04:00:54;;;;;;;27.00;1.50;;;;;;;25.30;55.45;98766.31;7310315;19;130935;-35
2023/07/29 04:03:20;;;;;;;81.77;4.50;;;;;;;25.32;55.26;98766.94;7308325;19;129814;-40
2023/07/29 04:05:45;;;;;;;22.03;1.37;;;;;;;25.31;55.45;98766.13;7310149;19;130080;-38
2023/07/29 04:08:10;;;;;;;60.10;3.50;;;;;;;25.32;55.15;98756.41;7309556;19;129638;-35
2023/07/29 04:10:37;;;;;;;24.47;1.40;;;;;;;25.23;52.90;98757.50;7317353;19;131990;-36
2023/07/29 04:13:03;;;;;;;11.18;0.70;;;;;;;24.78;51.14;98769.03;7316331;19;131086;-32
2023/07/29 04:15:29;;;;;;;48.73;2.67;;;;;;;24.73;50.88;98765.28;7315565;19;131007;-42
2023/07/29 04:17:55;;;;;;;19.80;1.15;;;;;;;24.71;51.36;98772.56;7316867;19;131193;-45
2023/07/29 04:20:20;;;;;;;56.83;3.37;;;;;;;24.94;54.19;98778.56;7315563;19;129713;-32
2023/07/29 04:22:45;;;;;;;30.40;1.60;;;;;;;25.00;54.61;98756.78;7316302;19;128958;-35
2023/07/29 04:25:11;;;;;;;37.03;1.90;;;;;;;25.18;54.87;98775.66;7316649;19;129982;-37
2023/07/29 04:27:37;;;;;;;24.23;1.35;;;;;;;25.22;54.37;98771.66;7316289;19;129792;-39
2023/07/29 04:30:02;;;;;;;28.53;1.60;;;;;;;25.23;55.29;98766.22;7317163;19;130870;-31
2023/07/29 04:32:28;;;;;;;30.63;1.70;;;;;;;25.19;54.54;98761.50;7315521;19;130307;-35
2023/07/29 04:34:53;;;;;;;43.87;2.30;;;;;;;25.28;55.08;98765.66;7314565;19;130102;-36
2023/07/29 04:37:18;;;;;;;43.23;2.47;;;;;;;25.31;54.86;98775.81;7315559;19;129014;-41
2023/07/29 04:39:44;;;;;;;30.17;1.63;;;;;;;25.29;54.96;98769.91;7315378;19;128780;-35
2023/07/29 04:42:09;;;;;;;38.87;2.07;;;;;;;25.33;54.60;98763.31;7314023;19;129194;-36
2023/07/29 04:44:34;;;;;;;73.97;4.13;;;;;;;25.33;54.98;98773.81;7313683;19;130328;-31
2023/07/29 04:47:00;;;;;;;44.23;2.63;;;;;;;25.34;55.04;98771.00;7316636;19;130339;-33
2023/07/29 04:49:25;;;;;;;33.03;2.13;;;;;;;25.34;55.08;98767.56;7314691;19;128940;-38
2023/07/29 04:51:51;;;;;;;42.37;2.20;;;;;;;25.09;51.73;98771.50;7315885;19;128836;-41
2023/07/29 04:54:16;;;;;;;32.60;1.90;;;;;;;24.81;51.25;98773.13;7315681;19;129409;-42
2023/07/29 04:56:41;;;;;;;33.57;1.90;;;;;;;24.76;51.04;98768.38;7315059;19;129236;-41
2023/07/29 04:59:08;;;;;;;49.67;2.57;;;;;;;24.70;51.09;98766.47;7315755;19;129351;-39
2023/07/29 05:01:33;;;;;;;;;;;;;;;25.06;55.07;98771.84;7312032;19;129604;-40
2023/07/29 05:03:58;;;;;;;33.00;1.90;;;;;;;25.14;54.32;98763.88;7314068;19;129980;-40
2023/07/29 05:06:24;;;;;;;25.93;1.43;;;;;;;25.19;54.99;98772.00;7314573;19;129179;-42
2023/07/29 05:08:49;;;;;;;27.30;1.67;;;;;;;25.22;54.79;98769.03;7313039;19;129273;-41
2023/07/29 05:11:14;;;;;;;44.20;2.33;;;;;;;25.23;54.84;98763.59;7315180;19;129072;-42
2023/07/29 05:13:40;;;;;;;51.37;3.10;;;;;;;25.27;54.85;98764.03;7312313;19;129338;-37
2023/07/29 05:16:05;;;;;;;26.40;1.43;;;;;;;25.22;54.58;98745.38;7315071;19;130418;-41
2023/07/29 05:18:31;;;;;;;34.27;1.93;;;;;;;25.31;55.39;98760.03;7313077;19;129154;-40
2023/07/29 05:20:56;;;;;;;23.93;1.30;;;;;;;25.32;55.46;98762.47;7310371;19;128943;-41
2023/07/29 05:23:21;;;;;;;30.27;1.70;;;;;;;25.32;54.92;98757.22;7313618;19;129013;-43
2023/07/29 05:25:47;;;;;;;88.00;5.23;;;;;;;25.32;54.88;98761.69;7313114;19;130767;-42
2023/07/29 05:28:12;;;;;;;27.97;1.60;;;;;;;25.33;55.12;98758.88;7313064;19;128832;-41
2023/07/29 05:30:39;;;;;;;48.83;2.80;;;;;;;25.33;55.49;98758.03;7313815;19;128804;-42
2023/07/29 05:33:05;;;;;;;27.70;1.52;;;;;;;25.03;52.31;98749.34;7314233;19;129430;-42
2023/07/29 05:35:30;;;;;;;24.60;1.33;;;;;;;24.78;51.40;98752.44;7314733;19;129425;-40
2023/07/29 05:37:56;;;;;;;52.03;3.03;;;;;;;24.71;51.42;98746.28;7312508;19;129151;-41
2023/07/29 05:40:21;;;;;;;34.90;1.80;;;;;;;24.74;52.71;98751.16;7312979;19;129018;-40
2023/07/29 05:42:47;;;;;;;58.20;3.53;;;;;;;25.00;54.06;98741.00;7313550;19;130864;-38
2023/07/29 05:45:13;;;;;;;27.58;1.58;;;;;;;25.03;54.43;98725.69;7313231;19;131149;-39
2023/07/29 05:47:38;;;;;;;43.40;2.23;;;;;;;25.18;54.71;98739.66;7312982;19;128866;-37
2023/07/29 05:50:04;;;;;;;27.07;1.47;;;;;;;25.12;55.00;98727.22;7314032;19;129854;-41
2023/07/29 05:52:33;;;;;;;33.60;1.83;;;;;;;25.24;55.08;98740.72;7313219;19;129719;-40
2023/07/29 05:54:58;;;;;;;52.35;2.95;;;;;;;25.26;55.31;98736.09;7309036;19;131198;-43
2023/07/29 05:57:24;;;;;;;40.47;2.13;;;;;;;25.29;55.11;98731.28;7312882;19;129889;-35
2023/07/29 05:59:49;;;;;;;74.70;4.03;;;;;;;25.30;54.78;98732.09;7312927;19;130390;-36
2023/07/29 06:02:14;;;;;;;22.77;1.30;;;;;;;25.30;55.11;98726.84;7310873;19;128995;-31
2023/07/29 06:04:40;;;;;;;29.37;1.63;;;;;;;25.30;55.24;98727.63;7310830;19;129161;-34
2023/07/29 06:07:06;;;;;;;80.77;4.83;;;;;;;25.29;55.63;98725.19;7311770;19;129466;-37
2023/07/29 06:09:31;;;;;;;18.87;1.00;;;;;;;25.24;55.13;98711.75;7312169;19;129064;-40
2023/07/29 06:11:56;;;;;;;47.33;2.90;;;;;;;25.33;55.04;98723.84;7311270;19;130730;-40
2023/07/29 06:14:22;;;;;;;30.00;1.63;;;;;;;24.86;51.71;98705.03;7311016;19;130324;-33
2023/07/29 06:16:47;;;;;;;41.83;2.33;;;;;;;24.75;51.77;98716.81;7312871;19;129106;-39
2023/07/29 06:19:13;;;;;;;21.00;1.20;;;;;;;24.63;50.84;98704.25;7312557;19;129148;-37
2023/07/29 06:21:38;;;;;;;36.03;2.00;;;;;;;24.82;53.68;98711.63;7310359;19;130826;-37
2023/07/29 06:24:04;;;;;;;79.80;4.60;;;;;;;25.05;54.75;98714.97;7309337;19;130354;-34
2023/07/29 06:26:29;;;;;;;41.83;2.13;;;;;;;25.15;54.87;98724.22;7312837;19;129876;-36
2023/07/29 06:28:54;;;;;;;47.97;2.80;;;;;;;25.20;54.46;98727.13;7312232;19;129365;-35
2023/07/29 06:31:20;;;;;;;26.33;1.40;;;;;;;25.22;55.30;98724.31;7312367;19;130219;-40
2023/07/29 06:33:46;;;;;;;17.17;1.07;;;;;;;25.15;55.18;98707.63;7311227;19;130190;-37
2023/07/29 06:36:11;;;;;;;42.27;2.40;;;;;;;25.28;54.99;98729.66;7312271;19;129244;-38
2023/07/29 06:38:38;;;;;;;26.80;1.50;;;;;;;25.29;54.92;98727.81;7312773;19;129853;-38
2023/07/29 06:41:04;;;;;;;52.05;3.13;;;;;;;25.29;55.07;98735.72;7310834;19;130130;-33
2023/07/29 06:43:29;;;;;;;31.40;1.67;;;;;;;25.29;55.55;98738.34;7311018;19;129653;-39
2023/07/29 06:45:55;;;;;;;12.77;0.73;;;;;;;25.29;55.04;98747.06;7312821;19;128958;-39
2023/07/29 06:48:20;;;;;;;25.93;1.47;;;;;;;25.19;54.95;98719.41;7310042;19;129458;-36
2023/07/29 06:50:46;;;;;;;29.63;1.97;;;;;;;25.29;55.38;98740.97;7310766;19;129963;-39
2023/07/29 06:53:11;;;;;;;87.93;4.87;;;;;;;25.29;55.02;98747.06;7309754;19;132097;-38
2023/07/29 06:55:37;;;;;;;46.70;2.43;;;;;;;24.87;51.37;98740.84;7312625;19;128754;-39
2023/07/29 06:58:02;;;;;;;51.43;3.03;;;;;;;24.74;51.61;98740.66;7310837;19;129282;-39
2023/07/29 07:00:28;;;;;;;32.30;1.70;;;;;;;24.75;51.00;98735.22;7311517;19;130140;-39
2023/07/29 07:02:53;;;;;;;41.80;2.17;;;;;;;24.86;53.69;98732.13;7311310;19;129657;-37
2023/07/29 07:05:19;;;;;;;36.93;2.03;;;;;;;25.06;54.48;98740.28;7311749;19;129276;-37
2023/07/29 07:07:44;;;;;;;33.93;2.03;;;;;;;25.17;54.71;98726.69;7311222;19;128927;-36
2023/07/29 07:10:09;;;;;;;65.00;3.87;;;;;;;25.20;55.10;98729.75;7309268;19;129099;-37
2023/07/29 07:12:35;;;;;;;39.50;2.07;;;;;;;25.24;54.64;98722.28;7311465;19;130863;-40
2023/07/29 07:15:01;;;;;;;1.80;0.13;;;;;;;25.27;54.92;98727.22;7308357;19;129232;-38
2023/07/29 07:17:26;;;;;;;27.47;1.67;;;;;;;25.28;55.18;98728.84;7312926;19;129277;-36
2023/07/29 07:19:51;;;;;;;26.13;1.50;;;;;;;25.30;54.72;98726.84;7312933;19;130082;-38
2023/07/29 07:22:17;;;;;;;37.47;2.03;;;;;;;25.29;55.21;98726.00;7310743;19;129479;-39
2023/07/29 07:24:42;;;;;;;21.90;1.20;;;;;;;25.31;54.86;98712.66;7311155;19;129026;-36
2023/07/29 07:27:07;;;;;;;93.10;5.67;;;;;;;25.32;55.13;98719.59;7308997;19;129258;-40
2023/07/29 07:29:33;;;;;;;43.87;2.27;;;;;;;25.33;55.44;98719.41;7311131;19;128977;-39
2023/07/29 07:31:58;;;;;;;33.87;1.90;;;;;;;25.31;54.75;98702.97;7311467;19;129139;-38
2023/07/29 07:34:24;;;;;;;28.50;1.57;;;;;;;25.09;52.29;98701.28;7311281;19;128876;-39
2023/07/29 07:36:49;;;;;;;36.63;2.00;;;;;;;24.78;51.20;98697.22;7312902;19;128874;-39
2023/07/29 07:39:15;;;;;;;60.27;3.07;;;;;;;24.71;51.21;98693.69;7311755;19;129000;-38
2023/07/29 07:41:41;;;;;;;41.03;2.30;;;;;;;24.71;50.61;98683.19;7310810;19;131516;-40
2023/07/29 07:44:07;;;;;;;27.52;1.58;;;;;;;24.99;54.58;98686.81;7315005;19;128878;-39
2023/07/29 07:46:32;;;;;;;26.23;1.43;;;;;;;25.14;54.53;98688.38;7318988;19;128969;-39
2023/07/29 07:48:57;;;;;;;45.73;2.37;;;;;;;25.19;54.78;98678.13;7318871;19;130226;-37
2023/07/29 07:51:23;;;;;;;27.97;1.50;;;;;;;25.22;55.02;98671.69;7319953;19;129606;-37
2023/07/29 07:53:48;;;;;;;20.63;1.13;;;;;;;25.27;54.54;98682.47;7318132;19;129623;-38
2023/07/29 07:56:14;;;;;;;57.77;2.93;;;;;;;25.29;54.54;98683.09;7317905;19;129590;-37
2023/07/29 07:58:40;;;;;;;45.22;2.30;;;;;;;25.30;55.25;98671.59;7319217;19;130839;-37
2023/07/29 08:01:07;;;;;;;25.83;1.50;;;;;;;25.32;55.25;98661.69;7318520;19;130697;-36
2023/07/29 08:03:33;;;;;;;29.60;1.55;;;;;;;25.32;54.67;98672.22;7318722;19;129094;-36
2023/07/29 08:05:58;;;;;;;13.97;0.87;;;;;;;25.33;54.59;98665.94;7318875;19;128971;-39
2023/07/29 08:08:25;;;;;;;36.23;2.00;;;;;;;25.33;55.04;98656.25;7318847;19;129388;-39
2023/07/29 08:10:51;;;;;;;42.22;2.40;;;;;;;25.33;55.06;98658.06;7316692;19;129303;-37
2023/07/29 08:13:17;;;;;;;28.83;1.58;;;;;;;25.34;54.97;98659.66;7317543;19;129352;-36
2023/07/29 08:15:45;;;;;;;39.03;2.13;;;;;;;25.15;52.41;98655.03;7318060;19;129122;-34
2023/07/29 08:18:11;;;;;;;60.90;3.40;;;;;;;24.84;51.66;98657.06;7316059;19;131050;-39
2023/07/29 08:20:36;;;;;;;24.37;1.40;;;;;;;24.77;50.80;98656.16;7317983;19;129181;-36
2023/07/29 08:23:02;;;;;;;26.47;1.47;;;;;;;24.72;50.94;98650.63;7317112;19;128990;-37
2023/07/29 08:25:28;;;;;;;50.13;2.57;;;;;;;24.96;54.21;98650.31;7316855;19;128915;-36
2023/07/29 08:27:54;;;;;;;36.28;1.95;;;;;;;25.13;54.51;98649.94;7317768;19;129420;-38
2023/07/29 08:30:19;;;;;;;24.13;1.30;;;;;;;25.20;54.27;98647.38;7317882;19;129167;-37
2023/07/29 08:32:44;;;;;;;37.23;2.23;;;;;;;25.25;54.71;98652.91;7316619;19;129410;-39
2023/07/29 08:35:10;;;;;;;47.57;2.50;;;;;;;25.26;54.96;98652.72;7318066;19;129242;-39
2023/07/29 08:37:35;;;;;;;34.50;2.03;;;;;;;25.28;54.83;98648.09;7317151;19;129221;-38
2023/07/29 08:40:00;;;;;;;18.63;1.03;;;;;;;25.29;54.61;98651.50;7316552;19;129879;-40
2023/07/29 08:42:29;;;;;;;35.53;1.97;;;;;;;25.33;55.44;98655.41;7315564;19;128923;-33
2023/07/29 08:44:55;;;;;;;43.75;2.22;;;;;;;25.33;54.65;98660.69;7315524;19;129159;-39
2023/07/29 08:47:21;;;;;;;28.73;1.65;;;;;;;25.33;55.22;98655.41;7316296;19;129512;-35
2023/07/29 08:49:48;;;;;;;28.23;1.63;;;;;;;25.27;55.27;98650.91;7318162;19;129905;-35
2023/07/29 08:52:14;;;;;;;29.10;1.58;;;;;;;25.31;55.02;98655.59;7317426;19;128755;-38
2023/07/29 08:54:40;;;;;;;53.75;2.72;;;;;;;25.32;54.88;98662.50;7312613;19;129090;-38
2023/07/29 08:57:06;;;;;;;61.80;3.57;;;;;;;24.86;51.30;98666.38;7316982;19;130016;-37
2023/07/29 08:59:32;;;;;;;35.78;1.85;;;;;;;24.75;51.17;98668.66;7317657;19;129409;-38
2023/07/29 09:01:58;;;;;;;26.25;1.55;;;;;;;24.81;50.75;98670.59;7315800;19;129104;-38
2023/07/29 09:04:24;;;;;;;30.60;1.70;;;;;;;24.88;53.31;98669.66;7315511;19;128969;-38
2023/07/29 09:06:51;;;;;;;33.53;1.83;;;;;;;25.08;54.42;98670.72;7318457;19;130089;-37
2023/07/29 09:09:17;;;;;;;21.63;1.27;;;;;;;25.19;54.41;98669.41;7315480;19;131594;-38
2023/07/29 09:11:43;;;;;;;44.73;2.30;;;;;;;25.22;54.34;98666.44;7317845;19;129124;-39
2023/07/29 09:14:10;;;;;;;35.33;1.95;;;;;;;25.25;55.03;98666.06;7314537;19;128814;-40
2023/07/29 09:16:36;;;;;;;30.88;1.77;;;;;;;25.26;54.44;98662.41;7315848;19;130664;-38
2023/07/29 09:19:03;;;;;;;22.77;1.27;;;;;;;25.30;54.84;98669.75;7315754;19;131441;-37
2023/07/29 09:21:29;;;;;;;27.92;1.50;;;;;;;25.32;54.92;98677.47;7314290;19;129539;-36
2023/07/29 09:23:55;;;;;;;42.03;2.25;;;;;;;25.33;54.96;98668.56;7315999;19;129191;-38
2023/07/29 09:26:25;;;;;;;53.30;3.22;;;;;;;25.33;54.87;98668.56;7315853;19;129552;-40
2023/07/29 09:28:56;;;;;;;29.38;1.58;;;;;;;25.25;55.36;98652.91;7315584;19;129646;-40
2023/07/29 09:31:23;;;;;;;28.25;1.60;;;;;;;25.32;55.45;98656.44;7316464;19;128784;-39
2023/07/29 09:33:49;;;;;;;33.92;1.77;;;;;;;25.29;55.42;98652.34;7315683;19;129167;-37
2023/07/29 09:36:14;;;;;;;26.63;1.50;;;;;;;25.01;52.06;98647.94;7315782;19;130162;-39
2023/07/29 09:38:39;;;;;;;9.67;0.60;;;;;;;24.83;51.32;98650.16;7315540;19;129760;-35
2023/07/29 09:41:05;;;;;;;27.57;1.43;;;;;;;24.72;51.02;98653.25;7315771;19;129492;-38
2023/07/29 09:43:34;;;;;;;44.07;2.27;;;;;;;24.80;53.45;98651.34;7314653;19;129241;-34
2023/07/29 09:46:01;;;;;;;24.40;1.40;;;;;;;25.03;54.60;98648.59;7315784;19;129699;-39
2023/07/29 09:48:28;;;;;;;;;;;;;;;25.25;54.34;98659.00;7316214;19;130312;-40
2023/07/29 09:50:54;;;;;;;28.55;1.48;;;;;;;25.22;54.65;98650.66;7315526;19;129270;-35
2023/07/29 09:53:19;;;;;;;40.27;2.03;;;;;;;25.22;54.53;98646.19;7312877;19;129165;-36
2023/07/29 09:55:50;;;;;;;24.10;1.37;;;;;;;25.28;54.96;98647.25;7316880;19;130074;-38
2023/07/29 09:58:19;;;;;;;28.58;1.60;;;;;;;25.28;55.25;98644.63;7314832;19;130537;-37
2023/07/29 10:00:45;;;;;;;66.43;3.88;;;;;;;25.29;55.03;98641.00;7314014;19;129153;-39
2023/07/29 10:03:12;;;;;;;32.50;1.67;;;;;;;25.31;54.69;98650.34;7315347;19;128904;-38
2023/07/29 10:05:38;;;;;;;36.25;1.92;;;;;;;25.32;54.59;98640.66;7314817;19;129303;-37
2023/07/29 10:08:04;;;;;;;58.50;2.97;;;;;;;25.32;54.97;98638.81;7313119;19;130397;-40
2023/07/29 10:10:30;;;;;;;18.23;1.03;;;;;;;25.31;54.86;98631.09;7316087;19;129624;-37
2023/07/29 10:12:56;;;;;;;54.30;2.73;;;;;;;25.29;54.92;98627.84;7315181;19;129186;-37
2023/07/29 10:15:22;;;;;;;30.27;1.57;;;;;;;25.22;55.41;98619.09;7315814;19;131371;-36
2023/07/29 10:17:49;;;;;;;30.10;1.73;;;;;;;24.85;51.75;98635.84;7313582;19;129429;-37
2023/07/29 10:20:15;;;;;;;23.38;1.33;;;;;;;24.78;50.66;98634.13;7313047;19;129672;-39
2023/07/29 10:22:42;;;;;;;41.63;2.20;;;;;;;24.76;51.22;98633.50;7312294;19;130715;-39
2023/07/29 10:25:19;;;;;;;32.30;1.73;;;;;;;24.97;54.84;98637.00;7314973;19;129243;-39
2023/07/29 10:27:52;;;;;;;21.17;1.23;;;;;;;25.11;54.87;98636.16;7313875;19;130552;-38
2023/07/29 10:30:17;;;;;;;22.40;1.23;;;;;;;25.19;54.59;98641.28;7315040;19;129189;-39
2023/07/29 10:32:44;;;;;;;25.23;1.43;;;;;;;25.24;54.85;98646.00;7314103;19;128886;-37
2023/07/29 10:35:10;;;;;;;;;;;;;;;25.34;55.35;98639.44;7314377;19;130189;-35
2023/07/29 10:37:36;;;;;;;33.78;1.92;;;;;;;25.31;54.85;98636.38;7313878;19;131209;-37
2023/07/29 10:40:06;;;;;;;28.05;1.60;;;;;;;25.32;55.04;98633.53;7313706;19;128855;-40
2023/07/29 10:42:32;;;;;;;26.50;1.38;;;;;;;25.32;54.97;98640.66;7312511;19;129124;-37
2023/07/29 10:44:57;;;;;;;37.33;1.93;;;;;;;25.33;54.96;98637.00;7311589;19;129194;-40
2023/07/29 10:47:25;;;;;;;32.77;2.00;;;;;;;25.33;54.89;98634.38;7314002;19;129108;-40
2023/07/29 10:49:54;;;;;;;33.47;1.85;;;;;;;25.32;55.33;98630.91;7313135;19;129093;-34
2023/07/29 10:52:40;;;;;;;45.58;2.70;;;;;;;25.34;54.99;98633.34;7313345;19;129032;-40
2023/07/29 10:55:25;;;;;;;26.67;1.48;;;;;;;25.33;55.74;98629.94;7311562;19;130913;-36
2023/07/29 10:57:50;;;;;;;27.55;1.50;;;;;;;24.86;51.60;98626.16;7313519;19;130214;-39
2023/07/29 11:00:16;;;;;;;42.03;2.23;;;;;;;24.80;51.18;98627.69;7314154;19;129104;-37
2023/07/29 11:02:41;;;;;;;22.90;1.23;;;;;;;24.75;50.47;98616.09;7311934;19;129452;-37
2023/07/29 11:05:17;;;;;;;24.13;1.40;;;;;;;24.92;55.05;98622.78;7311031;19;129404;-37
2023/07/29 11:07:45;;;;;;;24.80;1.30;;;;;;;25.11;54.21;98616.91;7312345;19;129366;-36
2023/07/29 11:10:11;;;;;;;38.05;2.00;;;;;;;25.11;55.09;98606.41;7313235;19;128771;-37
2023/07/29 11:12:45;;;;;;;32.38;1.67;;;;;;;25.24;54.80;98622.31;7313366;19;128916;-39
2023/07/29 11:15:10;;;;;;;24.95;1.38;;;;;;;25.27;54.46;98616.72;7314331;19;129290;-39